Weather at Beirut Rafic Hariri International Airport

Public forecast

Using degrees Celsius for public forecast. Weather courtesy of forecast.io.

Current aviation weather report (METAR) for Beirut Rafic Hariri International Airport

Retrieved 2022/05/24 03:00 UTC (51 minutes ago):

OLBA 240300Z 20013KT 8000 FEW030 20/13 Q1011 NOSIG

Aviation forecast (TAF) for Beirut Rafic Hariri International Airport

Forecast is more than 12 hours old.

Retrieved 2022/05/23 06:00 UTC (22 hours ago):

TAF OLBA 230400Z 2306/2412 23012G25KT 7000 BKN026 TEMPO 2306/2309 4000 RA BKN022 BECMG 2312/2314 23010KT 8000 SCT026 BECMG 2318/2320 14004KT NSC BECMG 2406/2408 27008KT CAVOK